createdAt,value
2023-12-09T00:00:46.707Z,51.22
2023-12-09T00:03:13.540Z,47.95
2023-12-09T00:05:40.355Z,50.67
2023-12-09T00:08:07.165Z,43.60
2023-12-09T00:10:34.424Z,54.08
2023-12-09T00:13:01.826Z,40.67
2023-12-09T00:15:28.604Z,42.97
2023-12-09T00:17:55.469Z,40.25
2023-12-09T00:20:22.269Z,42.03
2023-12-09T00:22:49.056Z,35.72
2023-12-09T00:25:15.914Z,35.28
2023-12-09T00:27:42.720Z,34.53
2023-12-09T00:30:09.665Z,38.05
2023-12-09T00:32:36.608Z,31.63
2023-12-09T00:35:03.767Z,32.53
2023-12-09T00:37:30.667Z,29.80
2023-12-09T00:39:57.414Z,33.92
2023-12-09T00:42:25.163Z,33.38
2023-12-09T00:44:52.469Z,31.48
2023-12-09T00:47:19.268Z,32.72
2023-12-09T00:49:46.365Z,30.75
2023-12-09T00:52:13.548Z,28.15
2023-12-09T00:54:40.383Z,34.40
2023-12-09T00:57:07.224Z,30.17
2023-12-09T00:59:34.278Z,36.13
2023-12-09T01:02:01.007Z,27.65
2023-12-09T01:04:28.003Z,31.10
2023-12-09T01:06:55.236Z,24.40
2023-12-09T01:09:22.114Z,20.65
2023-12-09T01:11:48.946Z,21.88
2023-12-09T01:14:16.250Z,26.48
2023-12-09T01:16:43.278Z,21.42
2023-12-09T01:19:10.132Z,26.00
2023-12-09T01:21:37.046Z,30.13
2023-12-09T01:24:05.868Z,30.70
2023-12-09T01:26:33.319Z,29.27
2023-12-09T01:29:01.394Z,30.02
2023-12-09T01:31:28.319Z,23.77
2023-12-09T01:33:55.221Z,26.38
2023-12-09T01:36:22.072Z,31.23
2023-12-09T01:38:48.938Z,32.40
2023-12-09T01:41:15.884Z,32.10
2023-12-09T01:43:46.703Z,28.48
2023-12-09T01:46:13.893Z,45.75
2023-12-09T01:48:41.309Z,39.55
2023-12-09T01:51:08.827Z,45.22
2023-12-09T01:53:37.473Z,36.75
2023-12-09T01:56:10.783Z,56.28
2023-12-09T01:58:38.584Z,60.78
2023-12-09T02:01:06.549Z,85.88
2023-12-09T02:03:34.905Z,80.85
2023-12-09T02:06:01.953Z,79.72
2023-12-09T02:08:28.744Z,65.55
2023-12-09T02:11:22.495Z,67.65
2023-12-09T02:13:58.842Z,61.63
2023-12-09T02:16:38.210Z,61.25
2023-12-09T02:19:08.540Z,62.85
2023-12-09T02:21:57.325Z,39.83
2023-12-09T02:24:24.357Z,38.42
2023-12-09T02:26:52.796Z,41.15
2023-12-09T02:29:21.309Z,38.15
2023-12-09T02:31:52.895Z,33.75
2023-12-09T02:34:23.124Z,31.83
2023-12-09T02:36:52.232Z,35.63
2023-12-09T02:39:19.647Z,24.77
2023-12-09T02:41:48.291Z,28.75
2023-12-09T02:44:15.341Z,22.35
2023-12-09T02:46:42.094Z,70.05
2023-12-09T02:49:08.980Z,114.30
2023-12-09T02:51:35.807Z,57.33
2023-12-09T02:54:02.573Z,97.47
2023-12-09T02:56:29.410Z,89.45
2023-12-09T02:58:56.193Z,73.15
2023-12-09T03:01:22.936Z,82.43
2023-12-09T03:03:49.776Z,85.63
2023-12-09T03:06:16.645Z,87.40
2023-12-09T03:08:43.427Z,91.43
2023-12-09T03:11:10.220Z,78.45
2023-12-09T03:13:36.988Z,28.83
2023-12-09T03:16:04.214Z,50.88
2023-12-09T03:18:31.340Z,31.52
2023-12-09T03:20:58.180Z,62.40
2023-12-09T03:23:24.906Z,62.67
2023-12-09T03:25:51.750Z,44.78
2023-12-09T03:28:18.540Z,44.80
2023-12-09T03:30:45.343Z,57.33
2023-12-09T03:33:12.256Z,69.53
2023-12-09T03:35:39.501Z,42.42
2023-12-09T03:38:06.434Z,43.25
2023-12-09T03:40:33.456Z,28.38
2023-12-09T03:43:00.261Z,39.17
2023-12-09T03:45:27.101Z,34.33
2023-12-09T03:47:53.996Z,29.60
2023-12-09T03:50:20.883Z,22.50
2023-12-09T03:52:47.692Z,23.85
2023-12-09T03:55:16.536Z,22.70
2023-12-09T03:57:43.605Z,29.30
2023-12-09T04:00:10.947Z,26.40
2023-12-09T04:02:37.817Z,28.00
2023-12-09T04:05:07.211Z,30.70
2023-12-09T04:07:34.764Z,34.50
2023-12-09T04:10:01.542Z,47.20
2023-12-09T04:12:28.649Z,43.90
2023-12-09T04:14:55.621Z,61.05
2023-12-09T04:17:22.959Z,44.38
2023-12-09T04:19:50.016Z,68.35
2023-12-09T04:22:16.943Z,53.97
2023-12-09T04:24:44.170Z,67.82
2023-12-09T04:27:11.533Z,71.88
2023-12-09T04:29:38.298Z,69.18
2023-12-09T04:32:05.630Z,86.32
2023-12-09T04:34:32.425Z,83.53
2023-12-09T04:36:59.531Z,76.28
2023-12-09T04:39:26.331Z,97.40
2023-12-09T04:41:53.134Z,84.53
2023-12-09T04:44:19.983Z,98.40
2023-12-09T04:46:47.589Z,81.78
2023-12-09T04:49:14.571Z,80.38
2023-12-09T04:51:41.371Z,69.47
2023-12-09T04:54:08.802Z,78.78
2023-12-09T04:56:35.559Z,71.72
2023-12-09T04:59:02.314Z,56.83
2023-12-09T05:01:29.551Z,74.70
2023-12-09T05:03:56.351Z,67.40
2023-12-09T05:06:23.278Z,79.45
2023-12-09T05:08:50.041Z,77.53
2023-12-09T05:11:16.809Z,77.78
2023-12-09T05:13:43.511Z,51.97
2023-12-09T05:16:10.330Z,72.70
2023-12-09T05:18:37.797Z,78.63
2023-12-09T05:21:07.781Z,67.15
2023-12-09T05:23:35.872Z,63.50
2023-12-09T05:26:02.692Z,77.63
2023-12-09T05:28:31.237Z,76.07
2023-12-09T05:30:58.673Z,86.07
2023-12-09T05:33:25.550Z,85.30
2023-12-09T05:35:52.449Z,88.72
2023-12-09T05:38:19.216Z,94.07
2023-12-09T05:40:45.986Z,77.18
2023-12-09T05:43:12.756Z,69.25
2023-12-09T05:45:39.761Z,84.97
2023-12-09T05:48:06.909Z,75.20
2023-12-09T05:50:33.767Z,80.43
2023-12-09T05:53:02.539Z,78.57
2023-12-09T05:55:29.521Z,80.38
2023-12-09T05:57:56.304Z,103.78
2023-12-09T06:00:23.406Z,100.05
2023-12-09T06:02:50.189Z,100.15
2023-12-09T06:05:17.059Z,103.80
2023-12-09T06:07:44.046Z,102.30
2023-12-09T06:10:11.085Z,108.53
2023-12-09T06:12:41.866Z,103.15
2023-12-09T06:15:09.055Z,120.88
2023-12-09T06:17:35.896Z,115.57
2023-12-09T06:20:02.822Z,98.78
2023-12-09T06:22:30.660Z,105.03
2023-12-09T06:24:57.564Z,98.57
2023-12-09T06:27:26.127Z,101.88
2023-12-09T06:29:53.279Z,99.63
2023-12-09T06:32:20.070Z,116.20
2023-12-09T06:34:46.944Z,116.30
2023-12-09T06:37:13.749Z,104.75
2023-12-09T06:39:40.574Z,110.55
2023-12-09T06:42:07.495Z,114.15
2023-12-09T06:44:34.308Z,99.32
2023-12-09T06:47:01.103Z,120.70
2023-12-09T06:49:27.932Z,116.63
2023-12-09T06:51:55.449Z,113.40
2023-12-09T06:54:22.603Z,114.32
2023-12-09T06:56:49.452Z,113.97
2023-12-09T06:59:16.277Z,107.38
2023-12-09T07:01:44.415Z,108.57
2023-12-09T07:04:13.530Z,121.88
2023-12-09T07:06:40.771Z,98.30
2023-12-09T07:09:08.772Z,101.85
2023-12-09T07:11:35.575Z,107.78
2023-12-09T07:14:02.421Z,95.47
2023-12-09T07:16:29.287Z,89.90
2023-12-09T07:19:00.828Z,86.00
2023-12-09T07:21:30.864Z,90.05
2023-12-09T07:23:58.161Z,74.88
2023-12-09T07:26:25.092Z,80.72
2023-12-09T07:28:51.878Z,73.07
2023-12-09T07:31:18.744Z,59.25
2023-12-09T07:33:45.814Z,62.80
2023-12-09T07:36:13.224Z,61.30
2023-12-09T07:38:40.106Z,69.38
2023-12-09T07:41:06.864Z,72.78
2023-12-09T07:43:33.641Z,54.47
2023-12-09T07:46:00.542Z,62.90
2023-12-09T07:48:28.634Z,55.67
2023-12-09T07:50:55.677Z,60.10
2023-12-09T07:53:22.492Z,60.00
2023-12-09T07:55:49.547Z,59.00
2023-12-09T07:58:16.663Z,63.63
2023-12-09T08:00:43.699Z,57.75
2023-12-09T08:03:10.587Z,49.90
2023-12-09T08:05:37.586Z,53.25
2023-12-09T08:08:05.132Z,56.83
2023-12-09T08:10:31.954Z,50.85
2023-12-09T08:12:59.638Z,51.47
2023-12-09T08:15:26.679Z,45.97
2023-12-09T08:17:53.496Z,50.20
2023-12-09T08:20:20.331Z,48.03
2023-12-09T08:22:47.676Z,55.22
2023-12-09T08:25:14.589Z,46.70
2023-12-09T08:27:41.872Z,47.47
2023-12-09T08:30:11.710Z,47.58
2023-12-09T08:32:42.830Z,46.13
2023-12-09T08:35:12.160Z,47.13
2023-12-09T08:37:40.232Z,51.55
2023-12-09T08:40:15.155Z,46.22
2023-12-09T08:42:43.781Z,45.75
2023-12-09T08:45:13.127Z,45.80
2023-12-09T08:47:44.006Z,42.33
2023-12-09T08:50:22.070Z,42.00
2023-12-09T08:52:53.099Z,45.78
2023-12-09T08:55:20.102Z,40.00
2023-12-09T08:57:47.071Z,42.97
2023-12-09T09:00:17.288Z,40.05
2023-12-09T09:02:44.149Z,33.78
2023-12-09T09:05:11.471Z,41.75
2023-12-09T09:07:41.392Z,42.72
2023-12-09T09:10:09.285Z,36.22
2023-12-09T09:12:36.138Z,31.58
2023-12-09T09:15:06.900Z,34.58
2023-12-09T09:17:36.560Z,31.67
2023-12-09T09:20:06.867Z,35.42
2023-12-09T09:22:34.646Z,36.60
2023-12-09T09:25:02.238Z,36.58
2023-12-09T09:27:29.549Z,33.20
2023-12-09T09:29:56.866Z,33.35
2023-12-09T09:32:24.157Z,31.23
2023-12-09T09:34:51.131Z,32.53
2023-12-09T09:37:17.938Z,33.80
2023-12-09T09:39:44.897Z,35.92
2023-12-09T09:42:30.729Z,35.25
2023-12-09T09:45:27.530Z,31.05
2023-12-09T09:47:57.804Z,32.38
2023-12-09T09:50:26.861Z,36.80
2023-12-09T09:52:55.777Z,42.45
2023-12-09T09:55:24.371Z,33.95
2023-12-09T09:57:51.846Z,42.28
2023-12-09T10:00:21.012Z,40.38
2023-12-09T10:02:53.001Z,37.88
2023-12-09T10:05:21.644Z,40.70
2023-12-09T10:07:48.935Z,39.38
2023-12-09T10:10:17.782Z,40.25
2023-12-09T10:12:46.024Z,40.80
2023-12-09T10:15:13.132Z,40.95
2023-12-09T10:17:40.434Z,32.17
2023-12-09T10:20:09.730Z,36.10
2023-12-09T10:22:36.735Z,36.40
2023-12-09T10:25:03.748Z,32.85
2023-12-09T10:27:31.051Z,33.63
2023-12-09T10:29:58.224Z,32.83
2023-12-09T10:32:27.501Z,33.00
2023-12-09T10:34:54.937Z,39.17
2023-12-09T10:37:23.210Z,38.40
2023-12-09T10:39:52.146Z,36.95
2023-12-09T10:42:19.233Z,36.28
2023-12-09T10:44:47.093Z,38.25
2023-12-09T10:47:13.963Z,38.58
2023-12-09T10:49:41.009Z,38.10
2023-12-09T10:52:07.943Z,37.03
2023-12-09T10:54:34.937Z,36.80
2023-12-09T10:57:02.301Z,36.42
2023-12-09T10:59:31.898Z,35.75
2023-12-09T11:02:01.392Z,42.10
2023-12-09T11:04:29.570Z,34.67
2023-12-09T11:07:00.544Z,35.90
2023-12-09T11:09:28.010Z,34.85
2023-12-09T11:11:55.297Z,35.80
2023-12-09T11:14:28.467Z,33.20
2023-12-09T11:16:58.386Z,35.42
2023-12-09T11:19:26.215Z,30.58
2023-12-09T11:21:53.583Z,31.90
2023-12-09T11:24:21.397Z,31.92
2023-12-09T11:26:48.866Z,33.42
2023-12-09T11:29:21.130Z,29.50
2023-12-09T11:31:50.004Z,33.45
2023-12-09T11:34:22.813Z,27.23
2023-12-09T11:36:53.532Z,34.20
2023-12-09T11:39:23.169Z,34.05
2023-12-09T11:41:51.561Z,38.78
2023-12-09T11:44:19.000Z,36.00
2023-12-09T11:46:47.834Z,34.38
2023-12-09T11:49:15.465Z,35.28
2023-12-09T11:51:42.399Z,39.30
2023-12-09T11:54:11.120Z,43.40
2023-12-09T11:56:39.690Z,41.53
2023-12-09T11:59:06.970Z,44.75
2023-12-09T12:01:35.211Z,43.47
2023-12-09T12:04:02.412Z,31.67
2023-12-09T12:06:29.573Z,35.70
2023-12-09T12:08:56.801Z,37.47
2023-12-09T12:11:25.653Z,32.88
2023-12-09T12:13:53.535Z,28.92
2023-12-09T12:16:20.918Z,29.77
2023-12-09T12:18:49.415Z,33.15
2023-12-09T12:21:16.868Z,30.85
2023-12-09T12:23:44.293Z,32.28
2023-12-09T12:26:12.805Z,27.65
2023-12-09T12:28:39.812Z,35.78
2023-12-09T12:31:07.902Z,34.65
2023-12-09T12:33:35.697Z,36.38
2023-12-09T12:36:02.944Z,32.22
2023-12-09T12:38:29.894Z,40.38
2023-12-09T12:40:58.552Z,32.58
2023-12-09T12:43:31.713Z,33.90
2023-12-09T12:46:00.021Z,34.72
2023-12-09T12:48:27.359Z,35.63
2023-12-09T12:50:54.930Z,35.28
2023-12-09T12:53:26.666Z,33.60
2023-12-09T12:55:55.898Z,36.92
2023-12-09T12:58:23.729Z,57.00
2023-12-09T13:00:52.936Z,37.90
2023-12-09T13:03:19.902Z,30.42
2023-12-09T13:05:46.921Z,27.27
2023-12-09T13:08:13.745Z,37.53
2023-12-09T13:10:40.949Z,29.65
2023-12-09T13:13:07.823Z,30.67
2023-12-09T13:15:34.857Z,36.88
2023-12-09T13:18:02.592Z,26.38
2023-12-09T13:20:30.338Z,31.75
2023-12-09T13:22:57.743Z,27.38
2023-12-09T13:25:24.602Z,30.05
2023-12-09T13:27:51.692Z,28.50
2023-12-09T13:30:18.690Z,27.88
2023-12-09T13:32:46.612Z,30.50
2023-12-09T13:35:15.706Z,30.02
2023-12-09T13:37:44.049Z,28.42
2023-12-09T13:40:12.941Z,27.92
2023-12-09T13:42:40.205Z,31.17
2023-12-09T13:45:07.723Z,32.40
2023-12-09T13:47:34.798Z,32.13
2023-12-09T13:50:01.766Z,28.67
2023-12-09T13:52:31.930Z,33.03
2023-12-09T13:55:00.019Z,30.83
2023-12-09T13:57:26.873Z,32.08
2023-12-09T13:59:53.866Z,31.48
2023-12-09T14:02:20.984Z,33.58
2023-12-09T14:04:48.140Z,29.92
2023-12-09T14:07:15.510Z,25.23
2023-12-09T14:09:42.626Z,26.77
2023-12-09T14:12:09.795Z,33.38
2023-12-09T14:14:37.447Z,29.05
2023-12-09T14:17:04.804Z,25.17
2023-12-09T14:19:31.646Z,26.27
2023-12-09T14:21:58.544Z,25.02
2023-12-09T14:24:25.339Z,25.17
2023-12-09T14:26:52.326Z,27.00
2023-12-09T14:29:19.131Z,25.40
2023-12-09T14:31:45.950Z,23.52
2023-12-09T14:34:13.008Z,22.45
2023-12-09T14:36:40.077Z,19.90
2023-12-09T14:39:10.620Z,22.98
2023-12-09T14:41:37.974Z,23.65
2023-12-09T14:44:08.649Z,20.77
2023-12-09T14:46:36.352Z,21.98
2023-12-09T14:49:04.312Z,19.65
2023-12-09T14:51:40.413Z,15.30
2023-12-09T14:54:16.322Z,17.35
2023-12-09T14:56:45.285Z,16.48
2023-12-09T14:59:12.860Z,15.10
2023-12-09T15:01:39.845Z,13.60
2023-12-09T15:04:06.804Z,16.63
2023-12-09T15:06:34.359Z,12.80
2023-12-09T15:09:01.988Z,10.90
2023-12-09T15:11:28.950Z,8.90
2023-12-09T15:13:55.728Z,12.90
2023-12-09T15:16:23.180Z,9.40
2023-12-09T15:18:50.155Z,11.75
2023-12-09T15:21:17.144Z,14.10
2023-12-09T15:23:44.026Z,11.73
2023-12-09T15:26:12.085Z,12.80
2023-12-09T15:28:39.184Z,11.27
2023-12-09T15:31:08.639Z,9.45
2023-12-09T15:33:35.726Z,9.95
2023-12-09T15:36:03.196Z,8.80
2023-12-09T15:38:30.118Z,8.88
2023-12-09T15:40:56.889Z,11.13
2023-12-09T15:43:23.634Z,8.63
2023-12-09T15:45:51.266Z,10.68
2023-12-09T15:48:19.093Z,9.23
2023-12-09T15:50:45.944Z,9.07
2023-12-09T15:53:13.496Z,7.22
2023-12-09T15:55:40.305Z,8.48
2023-12-09T15:58:07.318Z,9.23
2023-12-09T16:00:38.058Z,7.57
2023-12-09T16:03:05.247Z,7.68
2023-12-09T16:05:32.142Z,8.65
2023-12-09T16:08:00.375Z,8.55
2023-12-09T16:10:28.949Z,7.47
2023-12-09T16:12:55.937Z,6.72
2023-12-09T16:15:22.731Z,9.38
2023-12-09T16:17:50.129Z,6.32
2023-12-09T16:20:18.184Z,5.25
2023-12-09T16:22:46.332Z,5.55
2023-12-09T16:25:13.957Z,7.63
2023-12-09T16:27:41.330Z,7.57
2023-12-09T16:30:08.529Z,5.50
2023-12-09T16:32:35.427Z,6.75
2023-12-09T16:35:03.074Z,5.03
2023-12-09T16:37:29.996Z,6.13
2023-12-09T16:39:57.460Z,4.70
2023-12-09T16:42:24.272Z,5.47
2023-12-09T16:44:51.089Z,5.47
2023-12-09T16:47:18.099Z,7.35
2023-12-09T16:49:45.088Z,6.40
2023-12-09T16:52:12.353Z,5.93
2023-12-09T16:54:40.003Z,6.22
2023-12-09T16:57:07.527Z,6.22
2023-12-09T16:59:34.357Z,7.57
2023-12-09T17:02:01.142Z,6.30
2023-12-09T17:04:28.079Z,6.72
2023-12-09T17:06:55.382Z,7.57
2023-12-09T17:09:22.458Z,9.82
2023-12-09T17:11:52.721Z,7.10
2023-12-09T17:14:20.103Z,6.35
2023-12-09T17:16:47.020Z,7.03
2023-12-09T17:19:14.099Z,5.43
2023-12-09T17:21:41.128Z,5.65
2023-12-09T17:24:08.122Z,9.93
2023-12-09T17:26:36.133Z,10.57
2023-12-09T17:29:03.558Z,6.28
2023-12-09T17:31:30.945Z,16.65
2023-12-09T17:33:57.940Z,9.45
2023-12-09T17:36:27.195Z,6.53
2023-12-09T17:38:54.855Z,6.93
2023-12-09T17:41:22.171Z,14.20
2023-12-09T17:43:52.746Z,8.43
2023-12-09T17:46:20.622Z,8.98
2023-12-09T17:48:49.015Z,7.45
2023-12-09T17:51:15.966Z,7.47
2023-12-09T17:53:42.762Z,7.65
2023-12-09T17:56:09.929Z,7.07
2023-12-09T17:58:38.069Z,5.35
2023-12-09T18:01:05.666Z,5.97
2023-12-09T18:03:32.980Z,6.03
2023-12-09T18:05:59.894Z,5.53
2023-12-09T18:08:26.689Z,4.88
2023-12-09T18:10:53.481Z,4.72
2023-12-09T18:13:20.331Z,5.35
2023-12-09T18:15:47.795Z,5.57
2023-12-09T18:18:14.732Z,3.95
2023-12-09T18:20:41.593Z,3.40
2023-12-09T18:23:08.508Z,3.60
2023-12-09T18:25:35.407Z,3.85
2023-12-09T18:28:03.564Z,3.90
2023-12-09T18:30:31.058Z,3.47
2023-12-09T18:32:58.198Z,3.47
2023-12-09T18:35:25.136Z,4.03
2023-12-09T18:37:52.651Z,4.22
2023-12-09T18:40:21.717Z,5.00
2023-12-09T18:42:51.841Z,4.30
2023-12-09T18:45:19.579Z,4.03
2023-12-09T18:47:47.327Z,3.33
2023-12-09T18:50:14.707Z,4.70
2023-12-09T18:52:41.713Z,2.97
2023-12-09T18:55:09.675Z,4.00
2023-12-09T18:57:37.445Z,3.08
2023-12-09T19:00:05.661Z,3.03
2023-12-09T19:02:33.308Z,3.17
2023-12-09T19:05:00.628Z,2.30
2023-12-09T19:07:28.467Z,2.53
2023-12-09T19:09:55.406Z,2.30
2023-12-09T19:12:22.495Z,2.63
2023-12-09T19:14:50.168Z,2.05
2023-12-09T19:17:17.410Z,2.67
2023-12-09T19:19:44.410Z,2.72
2023-12-09T19:22:11.403Z,1.88
2023-12-09T19:24:38.376Z,2.00
2023-12-09T19:27:05.689Z,3.80
2023-12-09T19:29:32.611Z,2.38
2023-12-09T19:31:59.686Z,2.88
2023-12-09T19:34:27.241Z,2.63
2023-12-09T19:36:54.080Z,2.75
2023-12-09T19:39:21.331Z,2.50
2023-12-09T19:41:48.822Z,2.35
2023-12-09T19:44:15.637Z,2.22
2023-12-09T19:46:42.928Z,3.47
2023-12-09T19:49:09.902Z,5.50
2023-12-09T19:51:36.924Z,3.33
2023-12-09T19:54:03.942Z,3.05
2023-12-09T19:56:31.002Z,4.03
2023-12-09T19:58:57.872Z,4.95
2023-12-09T20:01:25.051Z,7.03
2023-12-09T20:03:52.126Z,4.53
2023-12-09T20:06:19.236Z,4.07
2023-12-09T20:08:46.443Z,3.08
2023-12-09T20:11:13.733Z,3.65
2023-12-09T20:13:41.094Z,3.90
2023-12-09T20:16:08.721Z,5.82
2023-12-09T20:18:35.855Z,2.50
2023-12-09T20:21:03.429Z,2.75
2023-12-09T20:23:30.255Z,7.10
2023-12-09T20:25:57.061Z,3.42
2023-12-09T20:28:24.005Z,3.10
2023-12-09T20:30:51.253Z,3.65
2023-12-09T20:33:18.402Z,8.50
2023-12-09T20:35:45.276Z,6.65
2023-12-09T20:38:14.996Z,1.60
2023-12-09T20:40:41.795Z,8.45
2023-12-09T20:43:09.104Z,7.88
2023-12-09T20:45:37.928Z,2.47
2023-12-09T20:48:05.596Z,1.70
2023-12-09T20:50:32.974Z,2.58
2023-12-09T20:52:59.798Z,2.83
2023-12-09T20:55:27.196Z,1.00
2023-12-09T20:57:54.448Z,1.23
2023-12-09T21:00:21.484Z,2.80
2023-12-09T21:02:48.252Z,1.35
2023-12-09T21:05:15.202Z,2.88
2023-12-09T21:07:42.769Z,0.90
2023-12-09T21:10:09.746Z,2.08
2023-12-09T21:12:36.552Z,1.00
2023-12-09T21:15:03.561Z,1.85
2023-12-09T21:17:30.545Z,1.05
2023-12-09T21:19:57.330Z,0.90
2023-12-09T21:22:25.587Z,0.95
2023-12-09T21:24:52.623Z,1.40
2023-12-09T21:27:19.508Z,2.35
2023-12-09T21:29:46.283Z,1.48
2023-12-09T21:32:13.110Z,0.98
2023-12-09T21:34:40.095Z,1.48
2023-12-09T21:37:07.017Z,1.85
2023-12-09T21:39:33.977Z,4.25
2023-12-09T21:42:00.840Z,1.80
2023-12-09T21:44:28.404Z,0.73
2023-12-09T21:46:55.191Z,0.75
2023-12-09T21:49:22.051Z,0.60
2023-12-09T21:51:48.990Z,1.05
2023-12-09T21:54:16.555Z,0.65
2023-12-09T21:56:43.385Z,1.17
2023-12-09T21:59:10.227Z,1.08
2023-12-09T22:01:38.360Z,2.38
2023-12-09T22:04:06.381Z,0.73
2023-12-09T22:06:33.540Z,2.10
2023-12-09T22:09:00.666Z,0.88
2023-12-09T22:11:27.600Z,1.00
2023-12-09T22:13:54.485Z,0.55
2023-12-09T22:16:21.544Z,0.50
2023-12-09T22:18:50.187Z,1.00
2023-12-09T22:21:17.177Z,1.50
2023-12-09T22:23:44.019Z,1.73
2023-12-09T22:26:10.852Z,1.65
2023-12-09T22:28:40.202Z,3.95
2023-12-09T22:31:09.844Z,1.02
2023-12-09T22:33:41.389Z,1.83
2023-12-09T22:36:10.007Z,6.22
2023-12-09T22:38:37.265Z,1.65
2023-12-09T22:41:04.383Z,1.20
2023-12-09T22:43:31.279Z,5.53
2023-12-09T22:45:58.054Z,5.03
2023-12-09T22:48:25.105Z,1.05
2023-12-09T22:50:54.643Z,1.98
2023-12-09T22:53:21.728Z,1.38
2023-12-09T22:55:48.516Z,1.52
2023-12-09T22:58:15.257Z,2.17
2023-12-09T23:00:43.586Z,2.85
2023-12-09T23:03:10.614Z,1.60
2023-12-09T23:05:38.395Z,5.60
2023-12-09T23:08:05.292Z,1.55
2023-12-09T23:10:32.112Z,2.72
2023-12-09T23:12:59.298Z,3.80
2023-12-09T23:15:26.069Z,2.38
2023-12-09T23:17:54.002Z,3.95
2023-12-09T23:20:20.923Z,4.35
2023-12-09T23:22:47.687Z,3.60
2023-12-09T23:25:14.772Z,7.50
2023-12-09T23:27:41.696Z,5.20
2023-12-09T23:30:09.012Z,5.25
2023-12-09T23:32:35.982Z,5.90
2023-12-09T23:35:02.780Z,12.43
2023-12-09T23:37:29.512Z,10.70
2023-12-09T23:39:56.385Z,11.50
2023-12-09T23:42:23.356Z,11.23
2023-12-09T23:44:50.182Z,6.45
2023-12-09T23:47:17.131Z,7.80
2023-12-09T23:49:43.912Z,14.82
2023-12-09T23:52:11.334Z,13.75
2023-12-09T23:54:38.209Z,17.80
2023-12-09T23:57:05.498Z,15.77
2023-12-09T23:59:32.915Z,8.52
